EDF weather

Elmendorf Air Force Base
Anchorage, Alaska, United States

Public forecast

Using degrees Fahrenheit for public forecast. Weather courtesy of forecast.io.

METAR (pilot weather report)

Retrieved 2019/05/19 16:56 UTC (59 minutes ago):

PAED 191656Z AUTO 00000KT 10SM BKN090 08/04 A2971

TAF (pilot weather forecast)

Forecast is more than 6 hours old.

Retrieved 2019/05/19 11:19 UTC (7 hours ago):

TAF PAED 191100Z 1911/2017 VRB06KT 9999 VCSH BKN080 610804 QNH2970INS TEMPO 1916/1922 6000 -SHRA BECMG 1923/2001 12009KT 9999 NSW FEW030 SCT060 BKN100 QNH2968INS BECMG 2004/2006 24009KT 6000 -RA BKN030 OVC050 620308 QNH2962INS TEMPO 2010/2014 4800 -RA BR BKN010 620106 TX13/2006Z TN02/1914Z